sensor_id;sensor_type;location;lat;lon;timestamp;temperature;humidity
44477;DHT22;30180;44.788;10.366;2023-03-19T00:02:07;17.50;61.50
44477;DHT22;30180;44.788;10.366;2023-03-19T00:04:45;17.50;61.50
44477;DHT22;30180;44.788;10.366;2023-03-19T00:07:14;17.50;61.50
44477;DHT22;30180;44.788;10.366;2023-03-19T00:09:42;17.50;61.50
44477;DHT22;30180;44.788;10.366;2023-03-19T00:12:14;17.50;61.50
44477;DHT22;30180;44.788;10.366;2023-03-19T00:14:42;17.50;61.50
44477;DHT22;30180;44.788;10.366;2023-03-19T00:17:11;17.50;61.50
44477;DHT22;30180;44.788;10.366;2023-03-19T00:19:39;17.50;61.50
44477;DHT22;30180;44.788;10.366;2023-03-19T00:22:09;17.40;61.40
44477;DHT22;30180;44.788;10.366;2023-03-19T00:24:37;17.40;61.40
44477;DHT22;30180;44.788;10.366;2023-03-19T00:27:05;17.50;62.10
44477;DHT22;30180;44.788;10.366;2023-03-19T00:29:33;17.40;61.40
44477;DHT22;30180;44.788;10.366;2023-03-19T00:32:02;17.40;61.40
44477;DHT22;30180;44.788;10.366;2023-03-19T00:34:30;17.40;61.50
44477;DHT22;30180;44.788;10.366;2023-03-19T00:36:58;17.40;61.40
44477;DHT22;30180;44.788;10.366;2023-03-19T00:39:28;17.40;61.40
44477;DHT22;30180;44.788;10.366;2023-03-19T00:41:56;17.40;61.40
44477;DHT22;30180;44.788;10.366;2023-03-19T00:44:24;17.40;61.40
44477;DHT22;30180;44.788;10.366;2023-03-19T00:46:53;17.40;61.50
44477;DHT22;30180;44.788;10.366;2023-03-19T00:49:21;17.40;61.50
44477;DHT22;30180;44.788;10.366;2023-03-19T00:51:49;17.40;61.40
44477;DHT22;30180;44.788;10.366;2023-03-19T00:54:17;17.40;61.40
44477;DHT22;30180;44.788;10.366;2023-03-19T00:56:47;17.40;61.50
44477;DHT22;30180;44.788;10.366;2023-03-19T00:59:15;17.40;61.40
44477;DHT22;30180;44.788;10.366;2023-03-19T01:01:43;17.40;61.50
44477;DHT22;30180;44.788;10.366;2023-03-19T01:04:12;17.40;61.50
44477;DHT22;30180;44.788;10.366;2023-03-19T01:06:40;17.40;61.50
44477;DHT22;30180;44.788;10.366;2023-03-19T01:09:09;17.40;61.50
44477;DHT22;30180;44.788;10.366;2023-03-19T01:11:37;17.40;61.50
44477;DHT22;30180;44.788;10.366;2023-03-19T01:14:07;17.40;61.50
44477;DHT22;30180;44.788;10.366;2023-03-19T01:16:35;17.40;62.10
44477;DHT22;30180;44.788;10.366;2023-03-19T01:19:03;17.40;61.50
44477;DHT22;30180;44.788;10.366;2023-03-19T01:21:31;17.40;61.50
44477;DHT22;30180;44.788;10.366;2023-03-19T01:24:01;17.40;61.50
44477;DHT22;30180;44.788;10.366;2023-03-19T01:26:29;17.40;61.50
44477;DHT22;30180;44.788;10.366;2023-03-19T01:28:57;17.40;61.50
44477;DHT22;30180;44.788;10.366;2023-03-19T01:31:27;17.40;61.50
44477;DHT22;30180;44.788;10.366;2023-03-19T01:33:55;17.40;61.50
44477;DHT22;30180;44.788;10.366;2023-03-19T01:36:23;17.40;61.50
44477;DHT22;30180;44.788;10.366;2023-03-19T01:38:51;17.40;61.50
44477;DHT22;30180;44.788;10.366;2023-03-19T01:41:20;17.40;61.50
44477;DHT22;30180;44.788;10.366;2023-03-19T01:43:49;17.30;61.40
44477;DHT22;30180;44.788;10.366;2023-03-19T01:46:22;17.30;61.40
44477;DHT22;30180;44.788;10.366;2023-03-19T01:48:56;17.40;61.50
44477;DHT22;30180;44.788;10.366;2023-03-19T01:51:27;17.30;61.40
44477;DHT22;30180;44.788;10.366;2023-03-19T01:53:58;17.30;61.40
44477;DHT22;30180;44.788;10.366;2023-03-19T01:56:30;17.30;61.40
44477;DHT22;30180;44.788;10.366;2023-03-19T01:59:03;17.30;61.40
44477;DHT22;30180;44.788;10.366;2023-03-19T02:01:35;17.30;61.50
44477;DHT22;30180;44.788;10.366;2023-03-19T02:04:06;17.30;61.40
44477;DHT22;30180;44.788;10.366;2023-03-19T02:06:35;17.30;61.40
44477;DHT22;30180;44.788;10.366;2023-03-19T02:09:04;17.30;61.40
44477;DHT22;30180;44.788;10.366;2023-03-19T02:11:32;17.30;61.40
44477;DHT22;30180;44.788;10.366;2023-03-19T02:14:00;17.30;61.50
44477;DHT22;30180;44.788;10.366;2023-03-19T02:16:29;17.30;61.40
44477;DHT22;30180;44.788;10.366;2023-03-19T02:18:57;17.30;61.50
44477;DHT22;30180;44.788;10.366;2023-03-19T02:21:28;17.30;61.40
44477;DHT22;30180;44.788;10.366;2023-03-19T02:24:01;17.30;61.40
44477;DHT22;30180;44.788;10.366;2023-03-19T02:26:32;17.30;61.40
44477;DHT22;30180;44.788;10.366;2023-03-19T02:29:00;17.30;61.50
44477;DHT22;30180;44.788;10.366;2023-03-19T02:31:30;17.30;61.50
44477;DHT22;30180;44.788;10.366;2023-03-19T02:34:00;17.30;61.50
44477;DHT22;30180;44.788;10.366;2023-03-19T02:36:31;17.30;61.40
44477;DHT22;30180;44.788;10.366;2023-03-19T02:39:05;17.30;61.50
44477;DHT22;30180;44.788;10.366;2023-03-19T02:41:36;17.30;61.50
44477;DHT22;30180;44.788;10.366;2023-03-19T02:44:07;17.30;61.50
44477;DHT22;30180;44.788;10.366;2023-03-19T02:46:37;17.30;61.50
44477;DHT22;30180;44.788;10.366;2023-03-19T02:49:05;17.30;61.50
44477;DHT22;30180;44.788;10.366;2023-03-19T02:51:33;17.30;61.50
44477;DHT22;30180;44.788;10.366;2023-03-19T02:54:03;17.30;61.40
44477;DHT22;30180;44.788;10.366;2023-03-19T02:56:32;17.30;61.50
44477;DHT22;30180;44.788;10.366;2023-03-19T02:59:02;17.30;61.50
44477;DHT22;30180;44.788;10.366;2023-03-19T03:01:30;17.30;61.40
44477;DHT22;30180;44.788;10.366;2023-03-19T03:03:58;17.30;61.50
44477;DHT22;30180;44.788;10.366;2023-03-19T03:06:26;17.20;61.40
44477;DHT22;30180;44.788;10.366;2023-03-19T03:08:54;17.30;61.50
44477;DHT22;30180;44.788;10.366;2023-03-19T03:11:22;17.20;61.40
44477;DHT22;30180;44.788;10.366;2023-03-19T03:13:51;17.20;61.40
44477;DHT22;30180;44.788;10.366;2023-03-19T03:16:20;17.20;61.40
44477;DHT22;30180;44.788;10.366;2023-03-19T03:18:48;17.20;61.40
44477;DHT22;30180;44.788;10.366;2023-03-19T03:21:17;17.20;61.40
44477;DHT22;30180;44.788;10.366;2023-03-19T03:23:46;17.20;61.40
44477;DHT22;30180;44.788;10.366;2023-03-19T03:26:14;17.20;61.40
44477;DHT22;30180;44.788;10.366;2023-03-19T03:28:42;17.20;61.50
44477;DHT22;30180;44.788;10.366;2023-03-19T03:31:10;17.20;61.40
44477;DHT22;30180;44.788;10.366;2023-03-19T03:33:40;17.20;61.40
44477;DHT22;30180;44.788;10.366;2023-03-19T03:36:09;17.20;61.40
44477;DHT22;30180;44.788;10.366;2023-03-19T03:38:38;17.20;61.40
44477;DHT22;30180;44.788;10.366;2023-03-19T03:41:06;17.20;61.40
44477;DHT22;30180;44.788;10.366;2023-03-19T03:43:34;17.20;61.40
44477;DHT22;30180;44.788;10.366;2023-03-19T03:46:02;17.20;61.40
44477;DHT22;30180;44.788;10.366;2023-03-19T03:48:31;17.20;61.40
44477;DHT22;30180;44.788;10.366;2023-03-19T03:51:00;17.20;61.40
44477;DHT22;30180;44.788;10.366;2023-03-19T03:53:29;17.20;61.50
44477;DHT22;30180;44.788;10.366;2023-03-19T03:55:57;17.20;61.50
44477;DHT22;30180;44.788;10.366;2023-03-19T03:58:25;17.20;61.40
44477;DHT22;30180;44.788;10.366;2023-03-19T04:00:54;17.20;61.50
44477;DHT22;30180;44.788;10.366;2023-03-19T04:03:22;17.20;61.40
44477;DHT22;30180;44.788;10.366;2023-03-19T04:05:50;17.20;61.50
44477;DHT22;30180;44.788;10.366;2023-03-19T04:08:20;17.20;61.40
44477;DHT22;30180;44.788;10.366;2023-03-19T04:10:49;17.20;61.40
44477;DHT22;30180;44.788;10.366;2023-03-19T04:13:17;17.20;61.40
44477;DHT22;30180;44.788;10.366;2023-03-19T04:15:46;17.20;61.40
44477;DHT22;30180;44.788;10.366;2023-03-19T04:18:14;17.20;61.50
44477;DHT22;30180;44.788;10.366;2023-03-19T04:20:43;17.20;61.50
44477;DHT22;30180;44.788;10.366;2023-03-19T04:23:11;17.20;61.50
44477;DHT22;30180;44.788;10.366;2023-03-19T04:25:40;17.20;61.50
44477;DHT22;30180;44.788;10.366;2023-03-19T04:28:08;17.20;61.50
44477;DHT22;30180;44.788;10.366;2023-03-19T04:30:37;17.20;61.50
44477;DHT22;30180;44.788;10.366;2023-03-19T04:33:05;17.20;61.50
44477;DHT22;30180;44.788;10.366;2023-03-19T04:35:33;17.20;61.50
44477;DHT22;30180;44.788;10.366;2023-03-19T04:38:02;17.20;61.60
44477;DHT22;30180;44.788;10.366;2023-03-19T04:40:31;17.30;61.60
44477;DHT22;30180;44.788;10.366;2023-03-19T04:43:01;17.30;61.60
44477;DHT22;30180;44.788;10.366;2023-03-19T04:45:29;17.30;61.60
44477;DHT22;30180;44.788;10.366;2023-03-19T04:47:58;17.30;61.70
44477;DHT22;30180;44.788;10.366;2023-03-19T04:50:26;17.30;61.70
44477;DHT22;30180;44.788;10.366;2023-03-19T04:52:54;17.30;61.70
44477;DHT22;30180;44.788;10.366;2023-03-19T04:55:23;17.30;61.70
44477;DHT22;30180;44.788;10.366;2023-03-19T04:57:51;17.40;61.70
44477;DHT22;30180;44.788;10.366;2023-03-19T05:00:21;17.40;61.70
44477;DHT22;30180;44.788;10.366;2023-03-19T05:02:49;17.40;61.70
44477;DHT22;30180;44.788;10.366;2023-03-19T05:05:17;17.40;61.70
44477;DHT22;30180;44.788;10.366;2023-03-19T05:07:45;17.40;61.80
44477;DHT22;30180;44.788;10.366;2023-03-19T05:10:14;17.40;61.70
44477;DHT22;30180;44.788;10.366;2023-03-19T05:12:42;17.50;61.80
44477;DHT22;30180;44.788;10.366;2023-03-19T05:15:11;17.40;61.80
44477;DHT22;30180;44.788;10.366;2023-03-19T05:17:40;17.50;61.80
44477;DHT22;30180;44.788;10.366;2023-03-19T05:20:10;17.50;61.80
44477;DHT22;30180;44.788;10.366;2023-03-19T05:22:38;17.50;61.80
44477;DHT22;30180;44.788;10.366;2023-03-19T05:25:07;17.50;61.80
44477;DHT22;30180;44.788;10.366;2023-03-19T05:27:35;17.50;61.80
44477;DHT22;30180;44.788;10.366;2023-03-19T05:30:05;17.50;61.80
44477;DHT22;30180;44.788;10.366;2023-03-19T05:32:33;17.60;61.90
44477;DHT22;30180;44.788;10.366;2023-03-19T05:35:04;17.60;61.80
44477;DHT22;30180;44.788;10.366;2023-03-19T05:37:32;17.60;61.80
44477;DHT22;30180;44.788;10.366;2023-03-19T05:40:00;17.60;61.80
44477;DHT22;30180;44.788;10.366;2023-03-19T05:42:28;17.60;61.80
44477;DHT22;30180;44.788;10.366;2023-03-19T05:44:57;17.60;61.80
44477;DHT22;30180;44.788;10.366;2023-03-19T05:47:25;17.60;61.80
44477;DHT22;30180;44.788;10.366;2023-03-19T05:49:53;17.60;61.80
44477;DHT22;30180;44.788;10.366;2023-03-19T05:52:23;17.60;62.10
44477;DHT22;30180;44.788;10.366;2023-03-19T05:54:51;17.60;61.80
44477;DHT22;30180;44.788;10.366;2023-03-19T05:57:20;17.60;61.80
44477;DHT22;30180;44.788;10.366;2023-03-19T05:59:48;17.60;61.80
44477;DHT22;30180;44.788;10.366;2023-03-19T06:02:16;17.60;61.80
44477;DHT22;30180;44.788;10.366;2023-03-19T06:04:45;17.60;61.80
44477;DHT22;30180;44.788;10.366;2023-03-19T06:07:13;17.60;61.80
44477;DHT22;30180;44.788;10.366;2023-03-19T06:09:43;17.60;61.80
44477;DHT22;30180;44.788;10.366;2023-03-19T06:12:11;17.60;61.80
44477;DHT22;30180;44.788;10.366;2023-03-19T06:14:39;17.60;61.80
44477;DHT22;30180;44.788;10.366;2023-03-19T06:17:07;17.60;61.80
44477;DHT22;30180;44.788;10.366;2023-03-19T06:19:36;17.60;61.80
44477;DHT22;30180;44.788;10.366;2023-03-19T06:22:04;17.60;61.70
44477;DHT22;30180;44.788;10.366;2023-03-19T06:24:32;17.60;61.70
44477;DHT22;30180;44.788;10.366;2023-03-19T06:27:01;17.60;61.80
44477;DHT22;30180;44.788;10.366;2023-03-19T06:29:30;17.60;61.70
44477;DHT22;30180;44.788;10.366;2023-03-19T06:31:58;17.60;61.70
44477;DHT22;30180;44.788;10.366;2023-03-19T06:34:26;17.60;61.70
44477;DHT22;30180;44.788;10.366;2023-03-19T06:36:54;17.60;61.70
44477;DHT22;30180;44.788;10.366;2023-03-19T06:39:23;17.60;61.70
44477;DHT22;30180;44.788;10.366;2023-03-19T06:41:51;17.60;61.70
44477;DHT22;30180;44.788;10.366;2023-03-19T06:44:20;17.60;61.70
44477;DHT22;30180;44.788;10.366;2023-03-19T06:46:50;17.60;61.80
44477;DHT22;30180;44.788;10.366;2023-03-19T06:49:18;17.60;61.80
44477;DHT22;30180;44.788;10.366;2023-03-19T06:51:47;17.60;61.80
44477;DHT22;30180;44.788;10.366;2023-03-19T06:54:15;17.60;61.80
44477;DHT22;30180;44.788;10.366;2023-03-19T06:56:44;17.60;61.80
44477;DHT22;30180;44.788;10.366;2023-03-19T06:59:12;17.60;61.80
44477;DHT22;30180;44.788;10.366;2023-03-19T07:01:43;17.60;61.80
44477;DHT22;30180;44.788;10.366;2023-03-19T07:04:12;17.60;61.80
44477;DHT22;30180;44.788;10.366;2023-03-19T07:06:40;17.60;61.80
44477;DHT22;30180;44.788;10.366;2023-03-19T07:09:08;17.60;61.80
44477;DHT22;30180;44.788;10.366;2023-03-19T07:11:37;17.60;61.80
44477;DHT22;30180;44.788;10.366;2023-03-19T07:14:05;17.60;61.80
44477;DHT22;30180;44.788;10.366;2023-03-19T07:16:33;17.60;61.80
44477;DHT22;30180;44.788;10.366;2023-03-19T07:19:03;17.60;61.80
44477;DHT22;30180;44.788;10.366;2023-03-19T07:21:31;17.60;61.80
44477;DHT22;30180;44.788;10.366;2023-03-19T07:23:59;17.60;61.80
44477;DHT22;30180;44.788;10.366;2023-03-19T07:26:28;17.60;61.80
44477;DHT22;30180;44.788;10.366;2023-03-19T07:28:56;17.60;61.80
44477;DHT22;30180;44.788;10.366;2023-03-19T07:31:24;17.60;61.80
44477;DHT22;30180;44.788;10.366;2023-03-19T07:33:52;17.60;61.80
44477;DHT22;30180;44.788;10.366;2023-03-19T07:36:22;17.60;61.80
44477;DHT22;30180;44.788;10.366;2023-03-19T07:38:50;17.60;61.80
44477;DHT22;30180;44.788;10.366;2023-03-19T07:41:19;17.60;61.80
44477;DHT22;30180;44.788;10.366;2023-03-19T07:43:47;17.60;61.80
44477;DHT22;30180;44.788;10.366;2023-03-19T07:46:15;17.60;61.80
44477;DHT22;30180;44.788;10.366;2023-03-19T07:48:43;17.60;61.80
44477;DHT22;30180;44.788;10.366;2023-03-19T07:51:12;17.60;61.80
44477;DHT22;30180;44.788;10.366;2023-03-19T07:53:42;17.60;61.80
44477;DHT22;30180;44.788;10.366;2023-03-19T07:56:10;17.60;61.80
44477;DHT22;30180;44.788;10.366;2023-03-19T07:58:39;17.60;61.70
44477;DHT22;30180;44.788;10.366;2023-03-19T08:01:07;17.60;61.70
44477;DHT22;30180;44.788;10.366;2023-03-19T08:03:35;17.60;61.70
44477;DHT22;30180;44.788;10.366;2023-03-19T08:06:04;17.60;61.70
44477;DHT22;30180;44.788;10.366;2023-03-19T08:08:32;17.60;61.80
44477;DHT22;30180;44.788;10.366;2023-03-19T08:11:03;17.60;61.70
44477;DHT22;30180;44.788;10.366;2023-03-19T08:13:32;17.60;61.80
44477;DHT22;30180;44.788;10.366;2023-03-19T08:16:00;17.60;61.80
44477;DHT22;30180;44.788;10.366;2023-03-19T08:18:28;17.60;62.40
44477;DHT22;30180;44.788;10.366;2023-03-19T08:20:57;17.60;61.80
44477;DHT22;30180;44.788;10.366;2023-03-19T08:23:25;17.60;61.70
44477;DHT22;30180;44.788;10.366;2023-03-19T08:25:53;17.60;61.80
44477;DHT22;30180;44.788;10.366;2023-03-19T08:28:24;17.60;61.80
44477;DHT22;30180;44.788;10.366;2023-03-19T08:30:52;17.60;61.80
44477;DHT22;30180;44.788;10.366;2023-03-19T08:33:21;17.60;61.80
44477;DHT22;30180;44.788;10.366;2023-03-19T08:35:50;17.60;61.80
44477;DHT22;30180;44.788;10.366;2023-03-19T08:38:19;17.60;61.70
44477;DHT22;30180;44.788;10.366;2023-03-19T08:40:47;17.60;61.80
44477;DHT22;30180;44.788;10.366;2023-03-19T08:43:15;17.60;61.80
44477;DHT22;30180;44.788;10.366;2023-03-19T08:45:44;17.60;61.80
44477;DHT22;30180;44.788;10.366;2023-03-19T08:48:13;17.50;61.70
44477;DHT22;30180;44.788;10.366;2023-03-19T08:50:41;17.60;61.80
44477;DHT22;30180;44.788;10.366;2023-03-19T08:53:09;17.60;61.80
44477;DHT22;30180;44.788;10.366;2023-03-19T08:55:38;17.60;61.80
44477;DHT22;30180;44.788;10.366;2023-03-19T08:58:06;17.60;61.70
44477;DHT22;30180;44.788;10.366;2023-03-19T09:00:34;17.50;61.70
44477;DHT22;30180;44.788;10.366;2023-03-19T09:03:03;17.50;61.70
44477;DHT22;30180;44.788;10.366;2023-03-19T09:05:32;17.60;61.80
44477;DHT22;30180;44.788;10.366;2023-03-19T09:08:00;17.60;61.80
44477;DHT22;30180;44.788;10.366;2023-03-19T09:10:29;17.50;61.70
44477;DHT22;30180;44.788;10.366;2023-03-19T09:12:57;17.50;61.70
44477;DHT22;30180;44.788;10.366;2023-03-19T09:15:25;17.50;61.70
44477;DHT22;30180;44.788;10.366;2023-03-19T09:17:54;17.50;61.70
44477;DHT22;30180;44.788;10.366;2023-03-19T09:20:23;17.50;61.80
44477;DHT22;30180;44.788;10.366;2023-03-19T09:22:51;17.50;61.70
44477;DHT22;30180;44.788;10.366;2023-03-19T09:25:20;17.50;61.70
44477;DHT22;30180;44.788;10.366;2023-03-19T09:27:48;17.50;61.70
44477;DHT22;30180;44.788;10.366;2023-03-19T09:30:16;17.50;61.70
44477;DHT22;30180;44.788;10.366;2023-03-19T09:32:44;17.50;61.70
44477;DHT22;30180;44.788;10.366;2023-03-19T09:35:13;17.50;61.70
44477;DHT22;30180;44.788;10.366;2023-03-19T09:37:43;17.50;61.70
44477;DHT22;30180;44.788;10.366;2023-03-19T09:40:19;17.50;61.70
44477;DHT22;30180;44.788;10.366;2023-03-19T09:42:57;17.50;61.70
44477;DHT22;30180;44.788;10.366;2023-03-19T09:45:28;17.40;61.70
44477;DHT22;30180;44.788;10.366;2023-03-19T09:48:01;17.50;61.70
44477;DHT22;30180;44.788;10.366;2023-03-19T09:50:32;17.50;61.90
44477;DHT22;30180;44.788;10.366;2023-03-19T09:53:07;17.50;61.70
44477;DHT22;30180;44.788;10.366;2023-03-19T09:55:42;17.50;61.70
44477;DHT22;30180;44.788;10.366;2023-03-19T09:58:14;17.50;61.70
44477;DHT22;30180;44.788;10.366;2023-03-19T10:00:46;17.40;61.70
44477;DHT22;30180;44.788;10.366;2023-03-19T10:03:31;17.40;61.70
44477;DHT22;30180;44.788;10.366;2023-03-19T10:06:11;17.50;61.70
44477;DHT22;30180;44.788;10.366;2023-03-19T10:11:46;17.40;61.70
44477;DHT22;30180;44.788;10.366;2023-03-19T10:17:33;17.40;61.70
44477;DHT22;30180;44.788;10.366;2023-03-19T10:20:06;17.40;61.70
44477;DHT22;30180;44.788;10.366;2023-03-19T10:22:39;17.40;61.70
44477;DHT22;30180;44.788;10.366;2023-03-19T10:25:17;17.40;61.70
44477;DHT22;30180;44.788;10.366;2023-03-19T10:27:50;17.40;61.70
44477;DHT22;30180;44.788;10.366;2023-03-19T10:30:21;17.40;61.80
44477;DHT22;30180;44.788;10.366;2023-03-19T10:32:52;17.40;61.80
44477;DHT22;30180;44.788;10.366;2023-03-19T10:35:23;17.50;61.80
44477;DHT22;30180;44.788;10.366;2023-03-19T10:37:54;17.50;61.80
44477;DHT22;30180;44.788;10.366;2023-03-19T10:40:35;17.50;61.90
44477;DHT22;30180;44.788;10.366;2023-03-19T10:43:16;17.50;61.90
44477;DHT22;30180;44.788;10.366;2023-03-19T10:45:47;17.50;61.90
44477;DHT22;30180;44.788;10.366;2023-03-19T10:48:17;17.50;61.90
44477;DHT22;30180;44.788;10.366;2023-03-19T10:50:49;17.50;61.90
44477;DHT22;30180;44.788;10.366;2023-03-19T10:53:28;17.50;61.90
44477;DHT22;30180;44.788;10.366;2023-03-19T10:56:02;17.50;61.90
44477;DHT22;30180;44.788;10.366;2023-03-19T10:58:33;17.60;62.00
44477;DHT22;30180;44.788;10.366;2023-03-19T11:01:04;17.60;62.00
44477;DHT22;30180;44.788;10.366;2023-03-19T11:03:33;17.60;62.00
44477;DHT22;30180;44.788;10.366;2023-03-19T11:06:14;17.60;62.00
44477;DHT22;30180;44.788;10.366;2023-03-19T11:08:49;17.60;62.00
44477;DHT22;30180;44.788;10.366;2023-03-19T11:11:25;17.60;62.00
44477;DHT22;30180;44.788;10.366;2023-03-19T11:13:54;17.60;62.00
44477;DHT22;30180;44.788;10.366;2023-03-19T11:16:22;17.60;62.00
44477;DHT22;30180;44.788;10.366;2023-03-19T11:18:51;17.60;62.00
44477;DHT22;30180;44.788;10.366;2023-03-19T11:21:22;17.70;62.00
44477;DHT22;30180;44.788;10.366;2023-03-19T11:23:52;17.70;62.00
44477;DHT22;30180;44.788;10.366;2023-03-19T11:26:20;17.70;62.00
44477;DHT22;30180;44.788;10.366;2023-03-19T11:28:51;17.70;62.00
44477;DHT22;30180;44.788;10.366;2023-03-19T11:31:25;17.70;62.00
44477;DHT22;30180;44.788;10.366;2023-03-19T11:34:07;17.70;62.70
44477;DHT22;30180;44.788;10.366;2023-03-19T11:36:46;17.70;62.00
44477;DHT22;30180;44.788;10.366;2023-03-19T11:39:23;17.70;62.00
44477;DHT22;30180;44.788;10.366;2023-03-19T11:42:10;17.70;62.00
44477;DHT22;30180;44.788;10.366;2023-03-19T11:44:55;17.70;62.00
44477;DHT22;30180;44.788;10.366;2023-03-19T11:47:31;17.70;62.00
44477;DHT22;30180;44.788;10.366;2023-03-19T11:50:16;17.70;62.00
44477;DHT22;30180;44.788;10.366;2023-03-19T11:53:00;17.70;62.00
44477;DHT22;30180;44.788;10.366;2023-03-19T11:55:33;17.70;62.00
44477;DHT22;30180;44.788;10.366;2023-03-19T12:01:03;17.70;62.00
44477;DHT22;30180;44.788;10.366;2023-03-19T12:03:55;17.70;62.00
44477;DHT22;30180;44.788;10.366;2023-03-19T12:06:38;17.70;62.00
44477;DHT22;30180;44.788;10.366;2023-03-19T12:09:14;17.70;61.90
44477;DHT22;30180;44.788;10.366;2023-03-19T12:11:52;17.70;62.00
44477;DHT22;30180;44.788;10.366;2023-03-19T12:14:31;17.70;62.00
44477;DHT22;30180;44.788;10.366;2023-03-19T12:17:22;17.70;62.00
44477;DHT22;30180;44.788;10.366;2023-03-19T12:20:03;17.70;62.00
44477;DHT22;30180;44.788;10.366;2023-03-19T12:22:46;17.70;62.00
44477;DHT22;30180;44.788;10.366;2023-03-19T12:25:39;17.70;62.00
44477;DHT22;30180;44.788;10.366;2023-03-19T12:28:14;17.70;61.90
44477;DHT22;30180;44.788;10.366;2023-03-19T12:30:52;17.70;62.00
44477;DHT22;30180;44.788;10.366;2023-03-19T12:33:33;17.70;62.00
44477;DHT22;30180;44.788;10.366;2023-03-19T12:36:04;17.70;62.00
44477;DHT22;30180;44.788;10.366;2023-03-19T12:38:38;17.70;61.90
44477;DHT22;30180;44.788;10.366;2023-03-19T12:41:09;17.70;61.90
44477;DHT22;30180;44.788;10.366;2023-03-19T12:43:40;17.70;61.90
44477;DHT22;30180;44.788;10.366;2023-03-19T12:46:15;17.70;62.60
44477;DHT22;30180;44.788;10.366;2023-03-19T12:48:50;17.70;62.00
44477;DHT22;30180;44.788;10.366;2023-03-19T12:51:22;17.70;62.00
44477;DHT22;30180;44.788;10.366;2023-03-19T12:53:55;17.70;62.00
44477;DHT22;30180;44.788;10.366;2023-03-19T12:56:31;17.60;61.90
44477;DHT22;30180;44.788;10.366;2023-03-19T12:59:09;17.60;61.90
44477;DHT22;30180;44.788;10.366;2023-03-19T13:01:41;17.60;61.90
44477;DHT22;30180;44.788;10.366;2023-03-19T13:04:16;17.60;61.90
44477;DHT22;30180;44.788;10.366;2023-03-19T13:06:51;17.60;61.90
44477;DHT22;30180;44.788;10.366;2023-03-19T13:09:26;17.60;61.90
44477;DHT22;30180;44.788;10.366;2023-03-19T13:11:59;17.60;61.90
44477;DHT22;30180;44.788;10.366;2023-03-19T13:14:33;17.60;61.90
44477;DHT22;30180;44.788;10.366;2023-03-19T13:17:10;17.60;61.90
44477;DHT22;30180;44.788;10.366;2023-03-19T13:19:45;17.60;61.90
44477;DHT22;30180;44.788;10.366;2023-03-19T13:22:18;17.60;61.90
44477;DHT22;30180;44.788;10.366;2023-03-19T13:24:49;17.60;61.90
44477;DHT22;30180;44.788;10.366;2023-03-19T13:27:21;17.60;61.90
44477;DHT22;30180;44.788;10.366;2023-03-19T13:30:00;17.60;62.00
44477;DHT22;30180;44.788;10.366;2023-03-19T13:32:40;17.60;61.90
44477;DHT22;30180;44.788;10.366;2023-03-19T13:35:27;17.60;61.90
44477;DHT22;30180;44.788;10.366;2023-03-19T13:38:01;17.60;61.80
44477;DHT22;30180;44.788;10.366;2023-03-19T13:40:41;17.60;61.80
44477;DHT22;30180;44.788;10.366;2023-03-19T13:43:39;17.50;61.70
44477;DHT22;30180;44.788;10.366;2023-03-19T13:46:39;17.50;61.70
44477;DHT22;30180;44.788;10.366;2023-03-19T13:49:29;17.50;61.60
44477;DHT22;30180;44.788;10.366;2023-03-19T13:54:53;17.40;61.60
44477;DHT22;30180;44.788;10.366;2023-03-19T13:57:33;17.40;61.60
44477;DHT22;30180;44.788;10.366;2023-03-19T14:03:19;17.40;61.60
44477;DHT22;30180;44.788;10.366;2023-03-19T14:05:49;17.40;61.60
44477;DHT22;30180;44.788;10.366;2023-03-19T14:08:21;17.40;61.60
44477;DHT22;30180;44.788;10.366;2023-03-19T14:10:52;17.40;61.60
44477;DHT22;30180;44.788;10.366;2023-03-19T14:13:28;17.40;61.60
44477;DHT22;30180;44.788;10.366;2023-03-19T14:16:05;17.40;61.60
44477;DHT22;30180;44.788;10.366;2023-03-19T14:18:39;17.40;61.60
44477;DHT22;30180;44.788;10.366;2023-03-19T14:21:09;17.40;61.60
44477;DHT22;30180;44.788;10.366;2023-03-19T14:23:40;17.40;61.60
44477;DHT22;30180;44.788;10.366;2023-03-19T14:26:16;17.40;61.50
44477;DHT22;30180;44.788;10.366;2023-03-19T14:28:52;17.40;61.50
44477;DHT22;30180;44.788;10.366;2023-03-19T14:31:29;17.40;61.50
44477;DHT22;30180;44.788;10.366;2023-03-19T14:34:01;17.40;61.50
44477;DHT22;30180;44.788;10.366;2023-03-19T14:36:30;17.40;61.50
44477;DHT22;30180;44.788;10.366;2023-03-19T14:39:02;17.40;61.50
44477;DHT22;30180;44.788;10.366;2023-03-19T14:41:39;17.40;61.50
44477;DHT22;30180;44.788;10.366;2023-03-19T14:44:36;17.40;61.50
44477;DHT22;30180;44.788;10.366;2023-03-19T14:47:23;17.40;61.50
44477;DHT22;30180;44.788;10.366;2023-03-19T14:50:13;17.40;61.50
44477;DHT22;30180;44.788;10.366;2023-03-19T14:52:51;17.40;61.50
44477;DHT22;30180;44.788;10.366;2023-03-19T14:55:32;17.40;61.50
44477;DHT22;30180;44.788;10.366;2023-03-19T14:58:01;17.40;61.50
44477;DHT22;30180;44.788;10.366;2023-03-19T15:00:39;17.40;61.50
44477;DHT22;30180;44.788;10.366;2023-03-19T15:03:21;17.40;61.50
44477;DHT22;30180;44.788;10.366;2023-03-19T15:05:55;17.40;61.50
44477;DHT22;30180;44.788;10.366;2023-03-19T15:08:24;17.40;61.50
44477;DHT22;30180;44.788;10.366;2023-03-19T15:11:17;17.40;61.50
44477;DHT22;30180;44.788;10.366;2023-03-19T15:14:00;17.40;61.50
44477;DHT22;30180;44.788;10.366;2023-03-19T15:16:35;17.40;61.50
44477;DHT22;30180;44.788;10.366;2023-03-19T15:19:08;17.40;61.50
44477;DHT22;30180;44.788;10.366;2023-03-19T15:21:36;17.40;61.50
44477;DHT22;30180;44.788;10.366;2023-03-19T15:24:06;17.50;61.50
44477;DHT22;30180;44.788;10.366;2023-03-19T15:26:41;17.50;61.50
44477;DHT22;30180;44.788;10.366;2023-03-19T15:29:10;17.40;61.50
44477;DHT22;30180;44.788;10.366;2023-03-19T15:31:41;17.50;61.60
44477;DHT22;30180;44.788;10.366;2023-03-19T15:34:20;17.50;61.60
44477;DHT22;30180;44.788;10.366;2023-03-19T15:36:52;17.50;61.60
44477;DHT22;30180;44.788;10.366;2023-03-19T15:39:23;17.60;61.70
44477;DHT22;30180;44.788;10.366;2023-03-19T15:41:55;17.50;61.60
44477;DHT22;30180;44.788;10.366;2023-03-19T15:44:31;17.50;61.70
44477;DHT22;30180;44.788;10.366;2023-03-19T15:47:03;17.60;61.70
44477;DHT22;30180;44.788;10.366;2023-03-19T15:49:35;17.60;61.70
44477;DHT22;30180;44.788;10.366;2023-03-19T15:52:09;17.60;61.70
44477;DHT22;30180;44.788;10.366;2023-03-19T15:54:38;17.70;61.80
44477;DHT22;30180;44.788;10.366;2023-03-19T15:57:11;17.70;61.70